Orumieh, Iran
Current Conditions -  °F | °C
As of 3:00 AM on Thursday 18 Dec 2014 (Local Time) from OITR Reporting Station
Overcast Overcast  
Wind Chill: 37°   Ceiling: 10000
Heat Index: 37°   Visibility: 6mi
Dew Point: 32°   Wind: 2mph
Humidity: 81%   Direction: 170°S
Pressure: 30.27"   Gusts: NA
Location:  37.53°N, 45.08°E
Report Text: OITR 180000Z 17002KT 9999 FEW035CB SCT040 OVC100 03/00 Q1025
Loading
Personal Weather Stations






























Interactive Weather Map New forecast layout! Learn more

10-Day Weather Forecast

Advertisements
Track Severe Weather on mobile